sensor_id;sensor_type;location;lat;lon;timestamp;temperature;humidity
66728;DHT22;53641;44.274;19.890;2024-02-15T02:28:29;4.10;93.40
66728;DHT22;53641;44.274;19.890;2024-02-15T02:30:55;4.10;93.50
66728;DHT22;53641;44.274;19.890;2024-02-15T02:33:22;4.10;93.30
66728;DHT22;53641;44.274;19.890;2024-02-15T02:35:49;4.10;93.30
66728;DHT22;53641;44.274;19.890;2024-02-15T02:38:15;4.10;93.30
66728;DHT22;53641;44.274;19.890;2024-02-15T02:40:41;4.20;93.30
66728;DHT22;53641;44.274;19.890;2024-02-15T02:43:07;4.10;93.40
66728;DHT22;53641;44.274;19.890;2024-02-15T02:45:33;4.10;93.20
66728;DHT22;53641;44.274;19.890;2024-02-15T02:47:58;4.10;93.30
66728;DHT22;53641;44.274;19.890;2024-02-15T02:50:24;4.10;93.40
66728;DHT22;53641;44.274;19.890;2024-02-15T02:52:50;4.10;93.50
66728;DHT22;53641;44.274;19.890;2024-02-15T02:55:16;4.10;93.40
66728;DHT22;53641;44.274;19.890;2024-02-15T02:57:43;4.20;93.40
66728;DHT22;53641;44.274;19.890;2024-02-15T03:00:13;4.10;93.30
66728;DHT22;53641;44.274;19.890;2024-02-15T03:02:42;4.20;93.30
66728;DHT22;53641;44.274;19.890;2024-02-15T03:05:09;4.00;93.40
66728;DHT22;53641;44.274;19.890;2024-02-15T03:07:37;4.10;93.60
66728;DHT22;53641;44.274;19.890;2024-02-15T03:10:03;4.00;93.60
66728;DHT22;53641;44.274;19.890;2024-02-15T03:12:30;4.00;93.50
66728;DHT22;53641;44.274;19.890;2024-02-15T03:14:56;4.10;93.60
66728;DHT22;53641;44.274;19.890;2024-02-15T03:17:23;4.00;93.60
66728;DHT22;53641;44.274;19.890;2024-02-15T03:19:49;3.90;93.70
66728;DHT22;53641;44.274;19.890;2024-02-15T03:22:15;3.90;93.80
66728;DHT22;53641;44.274;19.890;2024-02-15T03:24:41;3.90;93.70
66728;DHT22;53641;44.274;19.890;2024-02-15T03:27:07;3.90;93.80
66728;DHT22;53641;44.274;19.890;2024-02-15T03:29:35;4.00;93.70
66728;DHT22;53641;44.274;19.890;2024-02-15T03:32:02;3.90;93.60
66728;DHT22;53641;44.274;19.890;2024-02-15T03:34:32;4.00;93.70
66728;DHT22;53641;44.274;19.890;2024-02-15T03:36:57;4.00;93.60
66728;DHT22;53641;44.274;19.890;2024-02-15T03:39:24;3.90;93.70
66728;DHT22;53641;44.274;19.890;2024-02-15T03:41:50;3.90;93.70
66728;DHT22;53641;44.274;19.890;2024-02-15T03:44:19;3.90;93.80
66728;DHT22;53641;44.274;19.890;2024-02-15T03:46:45;3.90;93.60
66728;DHT22;53641;44.274;19.890;2024-02-15T03:49:17;3.90;93.80
66728;DHT22;53641;44.274;19.890;2024-02-15T03:51:43;3.90;93.60
66728;DHT22;53641;44.274;19.890;2024-02-15T03:54:10;3.90;93.80
66728;DHT22;53641;44.274;19.890;2024-02-15T03:56:36;3.80;93.90
66728;DHT22;53641;44.274;19.890;2024-02-15T03:59:02;3.80;94.10
66728;DHT22;53641;44.274;19.890;2024-02-15T04:01:30;3.70;94.10
66728;DHT22;53641;44.274;19.890;2024-02-15T04:03:59;3.70;93.90
66728;DHT22;53641;44.274;19.890;2024-02-15T04:06:25;3.80;94.10
66728;DHT22;53641;44.274;19.890;2024-02-15T04:08:53;3.80;94.20
66728;DHT22;53641;44.274;19.890;2024-02-15T04:11:19;3.80;94.20
66728;DHT22;53641;44.274;19.890;2024-02-15T04:13:45;3.70;94.40
66728;DHT22;53641;44.274;19.890;2024-02-15T04:16:11;3.70;94.30
66728;DHT22;53641;44.274;19.890;2024-02-15T04:18:36;3.60;94.30
66728;DHT22;53641;44.274;19.890;2024-02-15T04:21:03;3.70;94.10
66728;DHT22;53641;44.274;19.890;2024-02-15T04:23:31;3.70;94.20
66728;DHT22;53641;44.274;19.890;2024-02-15T04:25:57;3.60;94.10
66728;DHT22;53641;44.274;19.890;2024-02-15T04:28:25;3.60;94.40
66728;DHT22;53641;44.274;19.890;2024-02-15T04:30:51;3.60;94.40
66728;DHT22;53641;44.274;19.890;2024-02-15T04:33:16;3.60;94.40
66728;DHT22;53641;44.274;19.890;2024-02-15T04:35:42;3.60;94.20
66728;DHT22;53641;44.274;19.890;2024-02-15T04:38:09;3.70;94.30
66728;DHT22;53641;44.274;19.890;2024-02-15T04:40:35;3.70;94.50
66728;DHT22;53641;44.274;19.890;2024-02-15T04:43:03;3.70;94.40
66728;DHT22;53641;44.274;19.890;2024-02-15T04:45:29;3.70;94.30
66728;DHT22;53641;44.274;19.890;2024-02-15T04:47:56;3.70;94.20
66728;DHT22;53641;44.274;19.890;2024-02-15T04:50:22;3.80;94.20
66728;DHT22;53641;44.274;19.890;2024-02-15T04:52:48;3.80;94.20
66728;DHT22;53641;44.274;19.890;2024-02-15T04:55:15;3.80;94.20
66728;DHT22;53641;44.274;19.890;2024-02-15T04:57:43;3.70;94.20
66728;DHT22;53641;44.274;19.890;2024-02-15T05:00:09;3.80;94.10
66728;DHT22;53641;44.274;19.890;2024-02-15T05:02:37;3.80;94.30
66728;DHT22;53641;44.274;19.890;2024-02-15T05:05:07;3.70;94.30
66728;DHT22;53641;44.274;19.890;2024-02-15T05:07:33;3.70;94.30
66728;DHT22;53641;44.274;19.890;2024-02-15T05:10:00;3.70;94.30
66728;DHT22;53641;44.274;19.890;2024-02-15T05:12:28;3.60;94.20
66728;DHT22;53641;44.274;19.890;2024-02-15T05:14:56;3.60;94.40
66728;DHT22;53641;44.274;19.890;2024-02-15T05:17:22;3.70;94.20
66728;DHT22;53641;44.274;19.890;2024-02-15T05:19:48;3.70;94.10
66728;DHT22;53641;44.274;19.890;2024-02-15T05:22:14;3.60;94.20
66728;DHT22;53641;44.274;19.890;2024-02-15T05:24:40;3.70;94.30
66728;DHT22;53641;44.274;19.890;2024-02-15T05:27:06;3.60;94.20
66728;DHT22;53641;44.274;19.890;2024-02-15T05:29:32;3.70;94.30
66728;DHT22;53641;44.274;19.890;2024-02-15T05:32:01;3.70;94.30
66728;DHT22;53641;44.274;19.890;2024-02-15T05:34:27;3.60;94.20
66728;DHT22;53641;44.274;19.890;2024-02-15T05:36:55;3.60;94.40
66728;DHT22;53641;44.274;19.890;2024-02-15T05:39:21;3.50;94.30
66728;DHT22;53641;44.274;19.890;2024-02-15T05:41:47;3.60;94.40
66728;DHT22;53641;44.274;19.890;2024-02-15T05:44:13;3.60;94.40
66728;DHT22;53641;44.274;19.890;2024-02-15T05:46:44;3.60;94.40
66728;DHT22;53641;44.274;19.890;2024-02-15T05:49:10;3.60;94.50
66728;DHT22;53641;44.274;19.890;2024-02-15T05:51:41;3.70;94.30
66728;DHT22;53641;44.274;19.890;2024-02-15T05:54:07;3.80;94.10
66728;DHT22;53641;44.274;19.890;2024-02-15T05:56:32;3.80;93.90
66728;DHT22;53641;44.274;19.890;2024-02-15T05:58:58;3.90;94.10
66728;DHT22;53641;44.274;19.890;2024-02-15T06:01:24;3.90;94.20
66728;DHT22;53641;44.274;19.890;2024-02-15T06:03:50;3.90;94.10
66728;DHT22;53641;44.274;19.890;2024-02-15T06:06:20;4.00;94.00
66728;DHT22;53641;44.274;19.890;2024-02-15T06:08:47;3.90;94.00
66728;DHT22;53641;44.274;19.890;2024-02-15T06:11:13;4.00;94.10
66728;DHT22;53641;44.274;19.890;2024-02-15T06:13:40;4.00;93.90
66728;DHT22;53641;44.274;19.890;2024-02-15T06:16:06;4.00;93.90
66728;DHT22;53641;44.274;19.890;2024-02-15T06:18:35;4.00;93.80
66728;DHT22;53641;44.274;19.890;2024-02-15T06:21:01;4.00;93.70
66728;DHT22;53641;44.274;19.890;2024-02-15T06:23:27;4.10;93.60
66728;DHT22;53641;44.274;19.890;2024-02-15T06:25:55;4.20;93.50
66728;DHT22;53641;44.274;19.890;2024-02-15T06:28:21;4.20;93.60
66728;DHT22;53641;44.274;19.890;2024-02-15T06:31:07;4.10;93.40
66728;DHT22;53641;44.274;19.890;2024-02-15T06:33:53;4.10;93.60
66728;DHT22;53641;44.274;19.890;2024-02-15T06:36:52;3.80;93.70
66728;DHT22;53641;44.274;19.890;2024-02-15T06:39:38;4.00;93.80
66728;DHT22;53641;44.274;19.890;2024-02-15T06:42:10;4.10;93.80
66728;DHT22;53641;44.274;19.890;2024-02-15T06:44:37;4.20;93.90
66728;DHT22;53641;44.274;19.890;2024-02-15T06:47:05;4.40;93.80
66728;DHT22;53641;44.274;19.890;2024-02-15T06:49:32;4.50;93.70
66728;DHT22;53641;44.274;19.890;2024-02-15T06:51:58;4.80;93.50
66728;DHT22;53641;44.274;19.890;2024-02-15T06:54:27;5.00;93.10
66728;DHT22;53641;44.274;19.890;2024-02-15T06:56:53;5.20;93.00
66728;DHT22;53641;44.274;19.890;2024-02-15T06:59:20;5.30;92.70
66728;DHT22;53641;44.274;19.890;2024-02-15T07:01:47;5.40;92.60
66728;DHT22;53641;44.274;19.890;2024-02-15T07:04:13;5.30;92.70
66728;DHT22;53641;44.274;19.890;2024-02-15T07:06:39;5.50;92.90
66728;DHT22;53641;44.274;19.890;2024-02-15T07:09:05;5.70;92.60
66728;DHT22;53641;44.274;19.890;2024-02-15T07:11:32;5.80;92.50
66728;DHT22;53641;44.274;19.890;2024-02-15T07:14:00;6.20;92.40
66728;DHT22;53641;44.274;19.890;2024-02-15T07:16:25;6.90;91.80
66728;DHT22;53641;44.274;19.890;2024-02-15T07:18:51;7.80;90.40
66728;DHT22;53641;44.274;19.890;2024-02-15T07:21:19;8.70;88.30
66728;DHT22;53641;44.274;19.890;2024-02-15T07:23:46;9.50;85.60
66728;DHT22;53641;44.274;19.890;2024-02-15T07:26:12;10.00;84.50
66728;DHT22;53641;44.274;19.890;2024-02-15T07:28:40;10.40;83.00
66728;DHT22;53641;44.274;19.890;2024-02-15T07:31:06;10.70;81.70
66728;DHT22;53641;44.274;19.890;2024-02-15T07:33:32;11.20;81.00
66728;DHT22;53641;44.274;19.890;2024-02-15T07:36:00;11.80;80.60
66728;DHT22;53641;44.274;19.890;2024-02-15T07:38:26;11.90;79.80
66728;DHT22;53641;44.274;19.890;2024-02-15T07:40:52;12.50;78.80
66728;DHT22;53641;44.274;19.890;2024-02-15T07:43:18;12.80;77.60
66728;DHT22;53641;44.274;19.890;2024-02-15T07:45:43;13.40;76.80
66728;DHT22;53641;44.274;19.890;2024-02-15T07:48:09;13.60;75.90
66728;DHT22;53641;44.274;19.890;2024-02-15T07:50:36;13.60;75.40
66728;DHT22;53641;44.274;19.890;2024-02-15T07:53:03;13.90;75.70
66728;DHT22;53641;44.274;19.890;2024-02-15T07:55:32;14.20;74.70
66728;DHT22;53641;44.274;19.890;2024-02-15T07:57:57;14.70;74.30
66728;DHT22;53641;44.274;19.890;2024-02-15T08:00:25;15.10;73.60
66728;DHT22;53641;44.274;19.890;2024-02-15T08:02:56;15.10;73.50
66728;DHT22;53641;44.274;19.890;2024-02-15T08:05:23;15.10;73.70
66728;DHT22;53641;44.274;19.890;2024-02-15T08:07:48;15.40;73.10
66728;DHT22;53641;44.274;19.890;2024-02-15T08:10:15;15.80;72.60
66728;DHT22;53641;44.274;19.890;2024-02-15T08:12:41;15.70;73.10
66728;DHT22;53641;44.274;19.890;2024-02-15T08:15:08;16.00;72.90
66728;DHT22;53641;44.274;19.890;2024-02-15T08:17:39;16.10;71.80
66728;DHT22;53641;44.274;19.890;2024-02-15T08:20:06;16.10;72.10
66728;DHT22;53641;44.274;19.890;2024-02-15T08:22:32;16.60;70.80
66728;DHT22;53641;44.274;19.890;2024-02-15T08:24:59;16.70;70.80
66728;DHT22;53641;44.274;19.890;2024-02-15T08:27:25;17.00;70.60
66728;DHT22;53641;44.274;19.890;2024-02-15T08:29:51;17.20;70.30
66728;DHT22;53641;44.274;19.890;2024-02-15T08:32:17;17.40;69.50
66728;DHT22;53641;44.274;19.890;2024-02-15T08:34:42;17.50;69.60
66728;DHT22;53641;44.274;19.890;2024-02-15T08:37:08;17.30;69.10
66728;DHT22;53641;44.274;19.890;2024-02-15T08:39:35;17.50;69.20
66728;DHT22;53641;44.274;19.890;2024-02-15T08:42:00;17.50;68.80
66728;DHT22;53641;44.274;19.890;2024-02-15T08:44:26;17.50;68.10
66728;DHT22;53641;44.274;19.890;2024-02-15T08:46:52;17.60;68.70
66728;DHT22;53641;44.274;19.890;2024-02-15T08:49:17;17.80;68.80
66728;DHT22;53641;44.274;19.890;2024-02-15T08:51:43;17.80;68.20
66728;DHT22;53641;44.274;19.890;2024-02-15T08:54:09;17.70;67.60
66728;DHT22;53641;44.274;19.890;2024-02-15T08:56:38;17.60;67.70
66728;DHT22;53641;44.274;19.890;2024-02-15T08:59:04;17.50;67.20
66728;DHT22;53641;44.274;19.890;2024-02-15T09:01:29;17.60;67.60
66728;DHT22;53641;44.274;19.890;2024-02-15T09:03:57;17.70;67.70
66728;DHT22;53641;44.274;19.890;2024-02-15T09:06:22;17.80;67.00
66728;DHT22;53641;44.274;19.890;2024-02-15T09:08:48;17.80;67.80
66728;DHT22;53641;44.274;19.890;2024-02-15T09:11:14;18.00;67.10
66728;DHT22;53641;44.274;19.890;2024-02-15T09:13:40;18.20;66.90
66728;DHT22;53641;44.274;19.890;2024-02-15T09:16:06;18.20;66.70
66728;DHT22;53641;44.274;19.890;2024-02-15T09:18:31;18.60;66.30
66728;DHT22;53641;44.274;19.890;2024-02-15T09:20:59;18.20;66.30
66728;DHT22;53641;44.274;19.890;2024-02-15T09:23:25;18.00;67.20
66728;DHT22;53641;44.274;19.890;2024-02-15T09:25:50;18.30;67.70
66728;DHT22;53641;44.274;19.890;2024-02-15T09:28:19;18.40;66.30
66728;DHT22;53641;44.274;19.890;2024-02-15T09:30:48;18.80;64.90
66728;DHT22;53641;44.274;19.890;2024-02-15T09:33:16;18.70;64.70
66728;DHT22;53641;44.274;19.890;2024-02-15T09:35:42;18.60;64.20
66728;DHT22;53641;44.274;19.890;2024-02-15T09:38:08;18.40;64.90
66728;DHT22;53641;44.274;19.890;2024-02-15T09:40:34;18.70;65.10
66728;DHT22;53641;44.274;19.890;2024-02-15T09:43:01;18.50;64.10
66728;DHT22;53641;44.274;19.890;2024-02-15T09:45:27;18.30;65.60
66728;DHT22;53641;44.274;19.890;2024-02-15T09:47:53;18.30;64.70
66728;DHT22;53641;44.274;19.890;2024-02-15T09:50:19;17.80;65.10
66728;DHT22;53641;44.274;19.890;2024-02-15T09:52:50;17.50;66.60
66728;DHT22;53641;44.274;19.890;2024-02-15T09:55:16;17.30;66.90
66728;DHT22;53641;44.274;19.890;2024-02-15T09:57:44;17.10;66.70
66728;DHT22;53641;44.274;19.890;2024-02-15T10:00:10;17.40;67.00
66728;DHT22;53641;44.274;19.890;2024-02-15T10:02:41;17.80;67.50
66728;DHT22;53641;44.274;19.890;2024-02-15T10:05:10;18.10;66.10
66728;DHT22;53641;44.274;19.890;2024-02-15T10:07:44;18.00;66.00
66728;DHT22;53641;44.274;19.890;2024-02-15T10:10:18;18.00;65.30
66728;DHT22;53641;44.274;19.890;2024-02-15T10:12:45;18.20;65.70
66728;DHT22;53641;44.274;19.890;2024-02-15T10:15:27;18.30;64.90
66728;DHT22;53641;44.274;19.890;2024-02-15T10:17:55;18.40;64.90
66728;DHT22;53641;44.274;19.890;2024-02-15T10:20:21;18.20;64.60
66728;DHT22;53641;44.274;19.890;2024-02-15T10:22:51;18.00;64.80
66728;DHT22;53641;44.274;19.890;2024-02-15T10:25:17;17.90;66.30
66728;DHT22;53641;44.274;19.890;2024-02-15T10:27:44;17.80;65.20
66728;DHT22;53641;44.274;19.890;2024-02-15T10:30:18;17.50;66.30
66728;DHT22;53641;44.274;19.890;2024-02-15T10:32:44;17.00;66.80
66728;DHT22;53641;44.274;19.890;2024-02-15T10:35:10;17.10;67.30
66728;DHT22;53641;44.274;19.890;2024-02-15T10:37:44;16.80;68.10
66728;DHT22;53641;44.274;19.890;2024-02-15T10:40:10;16.70;69.40
66728;DHT22;53641;44.274;19.890;2024-02-15T10:42:40;16.80;68.40
66728;DHT22;53641;44.274;19.890;2024-02-15T10:45:08;16.70;68.10
66728;DHT22;53641;44.274;19.890;2024-02-15T10:47:37;16.70;68.30
66728;DHT22;53641;44.274;19.890;2024-02-15T10:50:04;16.60;69.10
66728;DHT22;53641;44.274;19.890;2024-02-15T10:52:32;16.40;67.60
66728;DHT22;53641;44.274;19.890;2024-02-15T10:55:05;16.50;67.40
66728;DHT22;53641;44.274;19.890;2024-02-15T10:57:37;16.60;67.50
66728;DHT22;53641;44.274;19.890;2024-02-15T11:00:06;16.90;67.40
66728;DHT22;53641;44.274;19.890;2024-02-15T11:02:50;16.70;67.80
66728;DHT22;53641;44.274;19.890;2024-02-15T11:05:20;16.60;67.90
66728;DHT22;53641;44.274;19.890;2024-02-15T11:07:49;16.60;67.40
66728;DHT22;53641;44.274;19.890;2024-02-15T11:10:15;16.50;67.60
66728;DHT22;53641;44.274;19.890;2024-02-15T11:12:43;16.30;67.20
66728;DHT22;53641;44.274;19.890;2024-02-15T11:15:09;16.10;67.50
66728;DHT22;53641;44.274;19.890;2024-02-15T11:17:45;15.90;68.50
66728;DHT22;53641;44.274;19.890;2024-02-15T11:20:46;16.10;68.10
66728;DHT22;53641;44.274;19.890;2024-02-15T11:23:23;16.40;67.60
66728;DHT22;53641;44.274;19.890;2024-02-15T11:25:49;16.60;66.90
66728;DHT22;53641;44.274;19.890;2024-02-15T11:28:36;16.80;67.60
66728;DHT22;53641;44.274;19.890;2024-02-15T11:31:02;16.90;67.00
66728;DHT22;53641;44.274;19.890;2024-02-15T11:33:32;16.70;66.90
66728;DHT22;53641;44.274;19.890;2024-02-15T11:36:02;16.70;67.30
66728;DHT22;53641;44.274;19.890;2024-02-15T11:38:30;16.90;66.60
66728;DHT22;53641;44.274;19.890;2024-02-15T11:41:04;17.00;67.20
66728;DHT22;53641;44.274;19.890;2024-02-15T11:43:47;17.20;66.90
66728;DHT22;53641;44.274;19.890;2024-02-15T11:46:27;17.20;67.00
66728;DHT22;53641;44.274;19.890;2024-02-15T11:48:57;17.30;66.40
66728;DHT22;53641;44.274;19.890;2024-02-15T11:51:29;16.90;66.20
66728;DHT22;53641;44.274;19.890;2024-02-15T11:53:59;16.70;67.30
66728;DHT22;53641;44.274;19.890;2024-02-15T11:56:25;16.20;67.90
66728;DHT22;53641;44.274;19.890;2024-02-15T11:59:01;15.90;68.40
66728;DHT22;53641;44.274;19.890;2024-02-15T12:01:28;15.50;69.40
66728;DHT22;53641;44.274;19.890;2024-02-15T12:04:13;15.40;70.00
66728;DHT22;53641;44.274;19.890;2024-02-15T12:06:59;15.30;70.30
66728;DHT22;53641;44.274;19.890;2024-02-15T12:09:45;15.20;70.60
66728;DHT22;53641;44.274;19.890;2024-02-15T12:12:30;15.10;70.70
66728;DHT22;53641;44.274;19.890;2024-02-15T12:15:16;15.20;70.50
66728;DHT22;53641;44.274;19.890;2024-02-15T12:18:18;14.70;70.20
66728;DHT22;53641;44.274;19.890;2024-02-15T12:21:04;15.10;70.50
66728;DHT22;53641;44.274;19.890;2024-02-15T12:23:30;15.10;71.10
66728;DHT22;53641;44.274;19.890;2024-02-15T12:26:00;15.10;71.30
66728;DHT22;53641;44.274;19.890;2024-02-15T12:28:26;14.90;71.00
66728;DHT22;53641;44.274;19.890;2024-02-15T12:30:55;14.80;71.00
66728;DHT22;53641;44.274;19.890;2024-02-15T12:33:24;14.80;71.00
66728;DHT22;53641;44.274;19.890;2024-02-15T12:35:50;14.90;72.00
66728;DHT22;53641;44.274;19.890;2024-02-15T12:38:17;15.10;71.10
66728;DHT22;53641;44.274;19.890;2024-02-15T12:40:43;15.10;71.80
66728;DHT22;53641;44.274;19.890;2024-02-15T12:43:10;15.10;71.20
66728;DHT22;53641;44.274;19.890;2024-02-15T12:45:37;15.00;71.10
66728;DHT22;53641;44.274;19.890;2024-02-15T12:48:06;14.80;71.50
66728;DHT22;53641;44.274;19.890;2024-02-15T12:50:32;14.70;71.00
66728;DHT22;53641;44.274;19.890;2024-02-15T12:52:59;14.60;71.90
66728;DHT22;53641;44.274;19.890;2024-02-15T12:55:29;14.60;72.00
66728;DHT22;53641;44.274;19.890;2024-02-15T12:58:04;14.50;72.20
66728;DHT22;53641;44.274;19.890;2024-02-15T13:00:31;14.50;71.90
66728;DHT22;53641;44.274;19.890;2024-02-15T13:02:59;14.70;71.90
66728;DHT22;53641;44.274;19.890;2024-02-15T13:05:26;14.70;71.80
66728;DHT22;53641;44.274;19.890;2024-02-15T13:07:53;14.80;71.70
66728;DHT22;53641;44.274;19.890;2024-02-15T13:10:30;14.80;70.60
66728;DHT22;53641;44.274;19.890;2024-02-15T13:12:57;14.80;71.00
66728;DHT22;53641;44.274;19.890;2024-02-15T13:15:24;14.70;70.90
66728;DHT22;53641;44.274;19.890;2024-02-15T13:17:58;14.90;70.90
66728;DHT22;53641;44.274;19.890;2024-02-15T13:20:24;15.10;70.30
66728;DHT22;53641;44.274;19.890;2024-02-15T13:23:01;15.20;70.30
66728;DHT22;53641;44.274;19.890;2024-02-15T13:25:28;15.30;69.80
66728;DHT22;53641;44.274;19.890;2024-02-15T13:27:55;15.40;70.60
66728;DHT22;53641;44.274;19.890;2024-02-15T13:30:20;15.20;70.10
66728;DHT22;53641;44.274;19.890;2024-02-15T13:32:49;15.00;70.60
66728;DHT22;53641;44.274;19.890;2024-02-15T13:35:18;15.00;70.80
66728;DHT22;53641;44.274;19.890;2024-02-15T13:37:53;14.80;71.40
66728;DHT22;53641;44.274;19.890;2024-02-15T13:40:26;14.60;72.20
66728;DHT22;53641;44.274;19.890;2024-02-15T13:42:55;14.40;72.50
66728;DHT22;53641;44.274;19.890;2024-02-15T13:45:26;14.10;73.80
66728;DHT22;53641;44.274;19.890;2024-02-15T13:47:56;14.00;73.00
66728;DHT22;53641;44.274;19.890;2024-02-15T13:50:22;14.00;73.30
66728;DHT22;53641;44.274;19.890;2024-02-15T13:52:49;13.90;73.10
66728;DHT22;53641;44.274;19.890;2024-02-15T13:55:17;13.80;73.30
66728;DHT22;53641;44.274;19.890;2024-02-15T13:57:47;13.80;73.70
66728;DHT22;53641;44.274;19.890;2024-02-15T14:00:14;13.80;74.30
66728;DHT22;53641;44.274;19.890;2024-02-15T14:02:54;13.80;73.90
66728;DHT22;53641;44.274;19.890;2024-02-15T14:05:23;13.70;73.50
66728;DHT22;53641;44.274;19.890;2024-02-15T14:07:59;13.60;73.90
66728;DHT22;53641;44.274;19.890;2024-02-15T14:10:27;13.60;74.50
66728;DHT22;53641;44.274;19.890;2024-02-15T14:12:53;13.60;73.90
66728;DHT22;53641;44.274;19.890;2024-02-15T14:15:27;13.50;74.30
66728;DHT22;53641;44.274;19.890;2024-02-15T14:17:53;13.60;73.80
66728;DHT22;53641;44.274;19.890;2024-02-15T14:20:19;13.50;74.00
66728;DHT22;53641;44.274;19.890;2024-02-15T14:22:47;13.40;73.60
66728;DHT22;53641;44.274;19.890;2024-02-15T14:25:23;13.50;74.70
66728;DHT22;53641;44.274;19.890;2024-02-15T14:27:49;13.70;74.20
66728;DHT22;53641;44.274;19.890;2024-02-15T14:30:15;13.80;74.60
66728;DHT22;53641;44.274;19.890;2024-02-15T14:33:01;13.80;74.40
66728;DHT22;53641;44.274;19.890;2024-02-15T14:35:34;13.80;73.10
66728;DHT22;53641;44.274;19.890;2024-02-15T14:38:05;13.60;74.00
66728;DHT22;53641;44.274;19.890;2024-02-15T14:40:33;13.70;74.30
66728;DHT22;53641;44.274;19.890;2024-02-15T14:42:58;13.70;74.30
66728;DHT22;53641;44.274;19.890;2024-02-15T14:45:25;13.80;73.60
66728;DHT22;53641;44.274;19.890;2024-02-15T14:47:52;13.80;73.60
66728;DHT22;53641;44.274;19.890;2024-02-15T14:50:17;13.80;74.00
66728;DHT22;53641;44.274;19.890;2024-02-15T14:52:46;13.70;73.80
66728;DHT22;53641;44.274;19.890;2024-02-15T14:55:12;13.70;73.70
66728;DHT22;53641;44.274;19.890;2024-02-15T14:57:37;13.60;73.80
66728;DHT22;53641;44.274;19.890;2024-02-15T15:00:05;13.50;74.00
66728;DHT22;53641;44.274;19.890;2024-02-15T15:02:36;13.40;74.20
66728;DHT22;53641;44.274;19.890;2024-02-15T15:05:02;13.40;73.90
66728;DHT22;53641;44.274;19.890;2024-02-15T15:07:47;13.40;74.10
66728;DHT22;53641;44.274;19.890;2024-02-15T15:10:33;13.30;74.60
66728;DHT22;53641;44.274;19.890;2024-02-15T15:13:19;13.30;74.60
66728;DHT22;53641;44.274;19.890;2024-02-15T15:15:44;13.30;74.20
66728;DHT22;53641;44.274;19.890;2024-02-15T15:18:12;13.30;74.60
66728;DHT22;53641;44.274;19.890;2024-02-15T15:20:37;13.30;74.40
66728;DHT22;53641;44.274;19.890;2024-02-15T15:23:04;13.40;74.70
66728;DHT22;53641;44.274;19.890;2024-02-15T15:25:32;13.40;74.50
66728;DHT22;53641;44.274;19.890;2024-02-15T15:27:58;13.40;74.20
66728;DHT22;53641;44.274;19.890;2024-02-15T15:30:24;13.40;74.20
66728;DHT22;53641;44.274;19.890;2024-02-15T15:32:50;13.40;73.80
66728;DHT22;53641;44.274;19.890;2024-02-15T15:35:16;13.40;74.20
66728;DHT22;53641;44.274;19.890;2024-02-15T15:37:44;13.40;74.30
66728;DHT22;53641;44.274;19.890;2024-02-15T15:40:11;13.40;74.50
66728;DHT22;53641;44.274;19.890;2024-02-15T15:42:39;13.30;74.20
66728;DHT22;53641;44.274;19.890;2024-02-15T15:45:05;13.40;74.40
66728;DHT22;53641;44.274;19.890;2024-02-15T15:47:33;13.40;74.40
66728;DHT22;53641;44.274;19.890;2024-02-15T15:49:58;13.40;74.20
66728;DHT22;53641;44.274;19.890;2024-02-15T15:52:24;13.30;74.40
66728;DHT22;53641;44.274;19.890;2024-02-15T15:54:50;13.20;74.30
66728;DHT22;53641;44.274;19.890;2024-02-15T15:57:16;13.20;74.50
66728;DHT22;53641;44.274;19.890;2024-02-15T15:59:42;13.10;74.60
66728;DHT22;53641;44.274;19.890;2024-02-15T16:02:09;13.20;74.90
66728;DHT22;53641;44.274;19.890;2024-02-15T16:04:35;13.20;75.30
66728;DHT22;53641;44.274;19.890;2024-02-15T16:07:08;13.10;74.70
66728;DHT22;53641;44.274;19.890;2024-02-15T16:09:33;13.10;74.40
66728;DHT22;53641;44.274;19.890;2024-02-15T16:11:59;13.20;74.90
66728;DHT22;53641;44.274;19.890;2024-02-15T16:14:25;13.10;74.20
66728;DHT22;53641;44.274;19.890;2024-02-15T16:16:52;13.10;74.20
66728;DHT22;53641;44.274;19.890;2024-02-15T16:19:18;13.10;74.50
66728;DHT22;53641;44.274;19.890;2024-02-15T16:21:44;13.10;74.40
66728;DHT22;53641;44.274;19.890;2024-02-15T16:24:10;13.20;74.60
66728;DHT22;53641;44.274;19.890;2024-02-15T16:26:36;13.10;74.50
66728;DHT22;53641;44.274;19.890;2024-02-15T16:29:01;13.20;74.30
66728;DHT22;53641;44.274;19.890;2024-02-15T16:31:27;13.10;74.70
66728;DHT22;53641;44.274;19.890;2024-02-15T16:33:53;13.10;74.60
66728;DHT22;53641;44.274;19.890;2024-02-15T16:36:19;13.10;74.40
66728;DHT22;53641;44.274;19.890;2024-02-15T16:38:45;13.10;74.90
66728;DHT22;53641;44.274;19.890;2024-02-15T16:41:11;13.10;74.40
66728;DHT22;53641;44.274;19.890;2024-02-15T16:43:36;13.10;75.00
66728;DHT22;53641;44.274;19.890;2024-02-15T16:46:03;13.10;75.20
66728;DHT22;53641;44.274;19.890;2024-02-15T16:48:29;13.10;74.80
66728;DHT22;53641;44.274;19.890;2024-02-15T16:50:55;13.00;75.70
66728;DHT22;53641;44.274;19.890;2024-02-15T16:53:23;12.90;75.70
66728;DHT22;53641;44.274;19.890;2024-02-15T16:55:50;12.90;75.50
66728;DHT22;53641;44.274;19.890;2024-02-15T16:58:16;12.90;76.80
66728;DHT22;53641;44.274;19.890;2024-02-15T17:00:45;12.80;76.00
66728;DHT22;53641;44.274;19.890;2024-02-15T17:03:12;12.80;76.40
66728;DHT22;53641;44.274;19.890;2024-02-15T17:05:40;12.80;77.40
66728;DHT22;53641;44.274;19.890;2024-02-15T17:08:06;12.80;77.40
66728;DHT22;53641;44.274;19.890;2024-02-15T17:10:35;12.80;79.00
66728;DHT22;53641;44.274;19.890;2024-02-15T17:13:00;12.70;79.70
66728;DHT22;53641;44.274;19.890;2024-02-15T17:15:27;12.60;78.70
66728;DHT22;53641;44.274;19.890;2024-02-15T17:17:54;12.60;78.40
66728;DHT22;53641;44.274;19.890;2024-02-15T17:20:20;12.50;78.70
66728;DHT22;53641;44.274;19.890;2024-02-15T17:22:48;12.40;79.10
66728;DHT22;53641;44.274;19.890;2024-02-15T17:25:15;12.30;79.40
66728;DHT22;53641;44.274;19.890;2024-02-15T17:27:41;12.30;79.60
66728;DHT22;53641;44.274;19.890;2024-02-15T17:30:11;12.20;79.60
66728;DHT22;53641;44.274;19.890;2024-02-15T17:32:40;12.10;79.70
66728;DHT22;53641;44.274;19.890;2024-02-15T17:35:07;12.10;80.40
66728;DHT22;53641;44.274;19.890;2024-02-15T17:37:39;11.90;80.40
66728;DHT22;53641;44.274;19.890;2024-02-15T17:40:05;11.90;80.70
66728;DHT22;53641;44.274;19.890;2024-02-15T17:42:31;11.70;81.10
66728;DHT22;53641;44.274;19.890;2024-02-15T17:44:57;11.70;81.20
66728;DHT22;53641;44.274;19.890;2024-02-15T17:47:23;11.70;81.50
66728;DHT22;53641;44.274;19.890;2024-02-15T17:49:49;11.60;81.70
66728;DHT22;53641;44.274;19.890;2024-02-15T17:52:16;11.50;81.90
66728;DHT22;53641;44.274;19.890;2024-02-15T17:54:42;11.50;82.00